Saint-Athanase, Canada
Current Conditions -  °F | °C
As of 7:53 AM on Saturday 20 Dec 2014 (Local Time) from KFVE Reporting Station
Overcast Overcast  
Wind Chill:   Ceiling: 800
Heat Index: 14°   Visibility: 10mi
Dew Point: 11°   Wind: 5mph
Humidity: 88%   Direction: 30°NNE
Pressure: 30.28"   Gusts: NA
Location:  47.43°N, 69.42°W
Report Text: KFVE 201253Z AUTO 03004KT 10SM OVC008 M10/M12 A3028 RMK AO2 SLP271 T11001117
Loading
Personal Weather Stations






























Interactive Weather Map New forecast layout! Learn more

10-Day Weather Forecast

Advertisements
Track Severe Weather on mobile